Time;durP1;ratioP1;P1;durP2;ratioP2;P2;SDS_P1;SDS_P2;PMS_P1;PMS_P2;Temp;Humidity;BMP_temperature;BMP_pressure;BME280_temperature;BME280_humidity;BME280_pressure;Samples;Min_cycle;Max_cycle;Signal;HPM_P1;HPM_P2
2021/07/10 00:00:48;;;;;;;6.4;4.8;;;;;;;;;;;;;
2021/07/10 00:03:13;;;;;;;5.4;4.4;;;;;;;;;;;;;
2021/07/10 00:05:39;;;;;;;6.8;4.2;;;;;;;;;;;;;
2021/07/10 00:08:04;;;;;;;5.7;4.5;;;;;;;;;;;;;
2021/07/10 00:10:31;;;;;;;8.6;4.3;;;;;;;;;;;;;
2021/07/10 00:12:56;;;;;;;5.9;4.5;;;;;;;;;;;;;
2021/07/10 00:15:26;;;;;;;9.4;5.1;;;;;;;;;;;;;
2021/07/10 00:17:51;;;;;;;6.5;4.2;;;;;;;;;;;;;
2021/07/10 00:20:16;;;;;;;6.7;4.5;;;;;;;;;;;;;
2021/07/10 00:22:42;;;;;;;6.2;4.8;;;;;;;;;;;;;
2021/07/10 00:25:07;;;;;;;6.8;4.5;;;;;;;;;;;;;
2021/07/10 00:27:44;;;;;;;5.4;4.7;;;;;;;;;;;;;
2021/07/10 00:30:11;;;;;;;5.3;4.4;;;;;;;;;;;;;
2021/07/10 00:32:36;;;;;;;8.2;4.4;;;;;;;;;;;;;
2021/07/10 00:35:01;;;;;;;4.9;4.4;;;;;;;;;;;;;
2021/07/10 00:37:26;;;;;;;6.1;4.6;;;;;;;;;;;;;
2021/07/10 00:39:51;;;;;;;6.9;4.5;;;;;;;;;;;;;
2021/07/10 00:44:50;;;;;;;5.9;4.6;;;;;;;;;;;;;
2021/07/10 00:47:16;;;;;;;6;4.7;;;;;;;;;;;;;
2021/07/10 00:49:41;;;;;;;6.4;4.6;;;;;;;;;;;;;
2021/07/10 00:52:06;;;;;;;4.7;4;;;;;;;;;;;;;
2021/07/10 00:54:32;;;;;;;5.5;4.3;;;;;;;;;;;;;
2021/07/10 00:56:58;;;;;;;6.5;4.3;;;;;;;;;;;;;
2021/07/10 00:59:22;;;;;;;5.9;4.4;;;;;;;;;;;;;
2021/07/10 01:01:49;;;;;;;5.4;4.1;;;;;;;;;;;;;
2021/07/10 01:04:15;;;;;;;5.8;4.3;;;;;;;;;;;;;
2021/07/10 01:06:39;;;;;;;5.8;4.1;;;;;;;;;;;;;
2021/07/10 01:09:04;;;;;;;5;4.5;;;;;;;;;;;;;
2021/07/10 01:11:30;;;;;;;6.5;4.2;;;;;;;;;;;;;
2021/07/10 01:13:56;;;;;;;5.2;4.4;;;;;;;;;;;;;
2021/07/10 01:16:25;;;;;;;4.5;4;;;;;;;;;;;;;
2021/07/10 01:18:53;;;;;;;4.2;3.8;;;;;;;;;;;;;
2021/07/10 01:21:18;;;;;;;5.4;4.4;;;;;;;;;;;;;
2021/07/10 01:23:43;;;;;;;5;4.5;;;;;;;;;;;;;
2021/07/10 01:26:08;;;;;;;5.3;4;;;;;;;;;;;;;
2021/07/10 01:28:34;;;;;;;4.8;4.2;;;;;;;;;;;;;
2021/07/10 01:31:00;;;;;;;4.3;3.6;;;;;;;;;;;;;
2021/07/10 01:33:25;;;;;;;5.4;3.9;;;;;;;;;;;;;
2021/07/10 01:35:50;;;;;;;4.5;4.1;;;;;;;;;;;;;
2021/07/10 01:38:18;;;;;;;5.3;4.3;;;;;;;;;;;;;
2021/07/10 01:40:43;;;;;;;5.5;4.2;;;;;;;;;;;;;
2021/07/10 01:43:08;;;;;;;5.1;4.2;;;;;;;;;;;;;
2021/07/10 01:45:33;;;;;;;4.4;4;;;;;;;;;;;;;
2021/07/10 01:47:58;;;;;;;4.6;4.1;;;;;;;;;;;;;
2021/07/10 01:51:09;;;;;;;4.3;3.7;;;;;;;;;;;;;
2021/07/10 01:53:19;;;;;;;4.7;4.1;;;;;;;;;;;;;
2021/07/10 01:55:45;;;;;;;4.5;3.8;;;;;;;;;;;;;
2021/07/10 01:58:09;;;;;;;5;3.9;;;;;;;;;;;;;
2021/07/10 02:00:37;;;;;;;4.7;4.3;;;;;;;;;;;;;
2021/07/10 02:03:02;;;;;;;4.3;3.9;;;;;;;;;;;;;
2021/07/10 02:05:28;;;;;;;4.9;4.3;;;;;;;;;;;;;
2021/07/10 02:07:53;;;;;;;5.7;4.4;;;;;;;;;;;;;
2021/07/10 02:10:18;;;;;;;6.2;4.5;;;;;;;;;;;;;
2021/07/10 02:12:43;;;;;;;8;4.5;;;;;;;;;;;;;
2021/07/10 02:15:10;;;;;;;5.9;4.7;;;;;;;;;;;;;
2021/07/10 02:17:35;;;;;;;5.6;5;;;;;;;;;;;;;
2021/07/10 02:20:03;;;;;;;7.2;4.6;;;;;;;;;;;;;
2021/07/10 02:22:28;;;;;;;4.8;4.3;;;;;;;;;;;;;
2021/07/10 02:24:54;;;;;;;4.8;4.4;;;;;;;;;;;;;
2021/07/10 02:27:19;;;;;;;6.8;4.2;;;;;;;;;;;;;
2021/07/10 02:29:44;;;;;;;5.1;4.6;;;;;;;;;;;;;
2021/07/10 02:32:09;;;;;;;5.1;4.6;;;;;;;;;;;;;
2021/07/10 02:34:34;;;;;;;5.4;4.7;;;;;;;;;;;;;
2021/07/10 02:36:59;;;;;;;7.4;4.7;;;;;;;;;;;;;
2021/07/10 02:39:25;;;;;;;5.8;4.7;;;;;;;;;;;;;
2021/07/10 02:41:50;;;;;;;5;4.6;;;;;;;;;;;;;
2021/07/10 02:44:15;;;;;;;4.6;4.1;;;;;;;;;;;;;
2021/07/10 02:46:42;;;;;;;5.5;4.3;;;;;;;;;;;;;
2021/07/10 02:49:07;;;;;;;4.5;4.1;;;;;;;;;;;;;
2021/07/10 02:51:32;;;;;;;4.4;4;;;;;;;;;;;;;
2021/07/10 02:53:57;;;;;;;5.8;4.1;;;;;;;;;;;;;
2021/07/10 02:56:24;;;;;;;5.6;4.1;;;;;;;;;;;;;
2021/07/10 02:58:49;;;;;;;6.1;4.4;;;;;;;;;;;;;
2021/07/10 03:01:16;;;;;;;4.7;4.3;;;;;;;;;;;;;
2021/07/10 03:03:41;;;;;;;4.4;4;;;;;;;;;;;;;
2021/07/10 03:06:06;;;;;;;5.1;4.6;;;;;;;;;;;;;
2021/07/10 03:08:31;;;;;;;5.3;4.4;;;;;;;;;;;;;
2021/07/10 03:10:56;;;;;;;6.4;5;;;;;;;;;;;;;
2021/07/10 03:13:21;;;;;;;7.2;5.2;;;;;;;;;;;;;
2021/07/10 03:15:51;;;;;;;5.4;4.6;;;;;;;;;;;;;
2021/07/10 03:18:17;;;;;;;4.8;4.3;;;;;;;;;;;;;
2021/07/10 03:20:43;;;;;;;4.7;4;;;;;;;;;;;;;
2021/07/10 03:23:08;;;;;;;5;4.4;;;;;;;;;;;;;
2021/07/10 03:25:33;;;;;;;4.9;4.3;;;;;;;;;;;;;
2021/07/10 03:28:00;;;;;;;4.9;4.2;;;;;;;;;;;;;
2021/07/10 03:30:24;;;;;;;5.1;4.6;;;;;;;;;;;;;
2021/07/10 03:32:49;;;;;;;5.3;4;;;;;;;;;;;;;
2021/07/10 03:35:14;;;;;;;6.4;4.8;;;;;;;;;;;;;
2021/07/10 03:37:40;;;;;;;4.8;3.9;;;;;;;;;;;;;
2021/07/10 03:40:05;;;;;;;4.6;3.8;;;;;;;;;;;;;
2021/07/10 03:42:30;;;;;;;4.7;4.3;;;;;;;;;;;;;
2021/07/10 03:44:55;;;;;;;6.5;4.5;;;;;;;;;;;;;
2021/07/10 03:47:21;;;;;;;5.8;4.7;;;;;;;;;;;;;
2021/07/10 03:49:46;;;;;;;7.4;4.7;;;;;;;;;;;;;
2021/07/10 03:52:12;;;;;;;5.2;4.7;;;;;;;;;;;;;
2021/07/10 03:54:37;;;;;;;4.6;4.2;;;;;;;;;;;;;
2021/07/10 03:57:03;;;;;;;5.4;4.6;;;;;;;;;;;;;
2021/07/10 03:59:28;;;;;;;5;4.3;;;;;;;;;;;;;
2021/07/10 04:02:30;;;;;;;6.8;4.8;;;;;;;12.64;94.16211;941.1902;;;;
2021/07/10 04:04:55;;;;;;;6.7;4.6;;;;;;;12.63;93.95117;941.1678;;;;
2021/07/10 04:07:20;;;;;;;4.9;4.3;;;;;;;12.47;94.48926;941.1744;;;;
2021/07/10 04:09:49;;;;;;;5.7;4.3;;;;;;;12.54;94.67969;941.1685;;;;
2021/07/10 04:12:20;;;;;;;5.5;4.5;;;;;;;12.62;93.97266;941.0862;;;;
2021/07/10 04:14:45;;;;;;;5;4;;;;;;;12.6;93.83105;941.1082;;;;
2021/07/10 04:17:11;;;;;;;6.1;4.1;;;;;;;12.61;93.85352;941.1512;;;;
2021/07/10 04:19:39;;;;;;;5.4;4.4;;;;;;;12.47;94.37695;941.1153;;;;
2021/07/10 04:22:10;;;;;;;5.1;4.7;;;;;;;12.4;94.91016;941.1097;;;;
2021/07/10 04:24:44;;;;;;;5.5;4.5;;;;;;;12.32;95.15527;941.1874;;;;
2021/07/10 04:27:09;;;;;;;4.8;4.4;;;;;;;12.31;96.02734;941.1794;;;;
2021/07/10 04:29:38;;;;;;;5.7;4.5;;;;;;;12.26;96.875;941.1686;;;;
2021/07/10 04:32:03;;;;;;;5.2;4.7;;;;;;;12.4;96.42578;941.1736;;;;
2021/07/10 04:34:33;;;;;;;5.9;4.2;;;;;;;12.56;94.91113;941.1359;;;;
2021/07/10 04:36:58;;;;;;;4.8;4.3;;;;;;;12.68;94.19043;941.1097;;;;
2021/07/10 04:39:26;;;;;;;5;4.5;;;;;;;12.81;93.46289;941.1049;;;;
2021/07/10 04:41:51;;;;;;;4.4;4;;;;;;;12.87;93.13184;941.0087;;;;
2021/07/10 04:44:19;;;;;;;5.4;4.7;;;;;;;12.96;92.23047;941.0963;;;;
2021/07/10 04:46:44;;;;;;;4.3;3.9;;;;;;;12.61;93.31641;941.0739;;;;
2021/07/10 04:49:14;;;;;;;5.2;4.3;;;;;;;12.69;93.58496;941.065;;;;
2021/07/10 04:51:41;;;;;;;4.5;4;;;;;;;12.4;94.63672;941.0881;;;;
2021/07/10 04:54:06;;;;;;;5.9;4.1;;;;;;;12.43;94.69824;940.9928;;;;
2021/07/10 04:56:33;;;;;;;4.4;4;;;;;;;12.37;95.11035;941.0209;;;;
2021/07/10 04:58:58;;;;;;;5.1;4.5;;;;;;;12.45;95.49512;941.0058;;;;
2021/07/10 05:01:26;;;;;;;4.3;3.9;;;;;;;12.59;94.47168;941.0681;;;;
2021/07/10 05:03:51;;;;;;;5.3;4.2;;;;;;;12.67;94.19043;940.9426;;;;
2021/07/10 05:06:18;;;;;;;4.2;3.8;;;;;;;12.84;93.0459;940.9711;;;;
2021/07/10 05:08:43;;;;;;;4.5;3.9;;;;;;;12.86;93.45117;940.9105;;;;
2021/07/10 05:11:11;;;;;;;5.2;4;;;;;;;13.61;93.98047;940.9525;;;;
2021/07/10 05:13:36;;;;;;;3.2;2.7;;;;;;;15.16;85.46289;940.9097;;;;
2021/07/10 05:16:12;;;;;;;4;2.4;;;;;;;16.92;79.01855;940.9233;;;;
2021/07/10 05:18:37;;;;;;;3.9;2.5;;;;;;;18.15;73.27832;940.8939;;;;
2021/07/10 05:21:08;;;;;;;4.6;2.2;;;;;;;17.12;73.29395;940.8859;;;;
2021/07/10 05:23:36;;;;;;;2.4;2.1;;;;;;;17.68;71.85352;940.8116;;;;
2021/07/10 05:26:02;;;;;;;2.3;2.1;;;;;;;18.67;68.50391;940.7751;;;;
2021/07/10 05:28:31;;;;;;;2.2;2;;;;;;;19.21;67.0498;940.8092;;;;
2021/07/10 05:30:56;;;;;;;2.1;1.9;;;;;;;19.7;63.84766;940.7802;;;;
2021/07/10 05:33:21;;;;;;;2.7;1.9;;;;;;;19.1;66.2168;940.8317;;;;
2021/07/10 05:35:47;;;;;;;3.1;1.8;;;;;;;20.76;61.48926;940.7891;;;;
2021/07/10 05:38:16;;;;;;;2.1;1.9;;;;;;;20.21;62.84766;940.7772;;;;
2021/07/10 05:40:40;;;;;;;2.2;1.9;;;;;;;20.16;62.73535;940.7486;;;;
2021/07/10 05:43:08;;;;;;;3.6;2;;;;;;;18.5;68.39648;940.7186;;;;
2021/07/10 05:45:33;;;;;;;4.7;2.3;;;;;;;19.68;64.68457;940.6643;;;;
2021/07/10 05:47:58;;;;;;;3.9;2.2;;;;;;;21.85;58.59277;940.6287;;;;
2021/07/10 05:50:23;;;;;;;2.6;2;;;;;;;23.55;53.90137;940.6865;;;;
2021/07/10 05:52:50;;;;;;;4.7;2.1;;;;;;;23.28;52.95117;940.675;;;;
2021/07/10 05:55:15;;;;;;;4.7;2.5;;;;;;;24.32;52.25098;940.6293;;;;
2021/07/10 05:57:41;;;;;;;3.3;2.1;;;;;;;22.86;53.37207;940.6266;;;;
2021/07/10 06:00:06;;;;;;;3.3;2.2;;;;;;;23.5;53.1543;940.6194;;;;
2021/07/10 06:02:34;;;;;;;6.8;4.7;;;;;;;22.52;55.19629;940.5664;;;;
2021/07/10 06:04:59;;;;;;;2.6;2.1;;;;;;;22.94;53.18164;940.5563;;;;
2021/07/10 08:52:04;;;;;;;1.7;1.6;;;;;;;31.98;35.31641;939.3986;;;;
2021/07/10 08:56:39;;;;;;;2.3;1.4;;;;;;;30.29;42.43164;939.3047;;;;
2021/07/10 08:59:04;;;;;;;2.1;1.3;;;;;;;31.55;39.0293;939.2827;;;;
2021/07/10 09:01:29;;;;;;;2.4;1.6;;;;;;;29.54;44.50684;939.2144;;;;
2021/07/10 09:03:55;;;;;;;3.7;1.6;;;;;;;29.57;42.03027;939.1487;;;;
2021/07/10 09:06:25;;;;;;;2;1.5;;;;;;;31.14;36.79395;939.1752;;;;
2021/07/10 09:09:00;;;;;;;1.5;1.4;;;;;;;31.95;36.52441;939.1783;;;;
2021/07/10 09:11:28;;;;;;;1.3;1.2;;;;;;;30.62;38.55566;939.1297;;;;
2021/07/10 09:14:01;;;;;;;1.5;1.4;;;;;;;29.3;42.94629;939.1633;;;;
2021/07/10 09:16:31;;;;;;;2.1;1.5;;;;;;;29.43;41.20703;939.1312;;;;
2021/07/10 09:19:00;;;;;;;3.2;1.5;;;;;;;29.11;45.33301;939.1425;;;;
2021/07/10 09:21:26;;;;;;;3.5;1.7;;;;;;;29.99;41.77148;939.0139;;;;
2021/07/10 09:23:53;;;;;;;2.3;1.3;;;;;;;30.34;41.04004;938.9999;;;;
2021/07/10 09:26:18;;;;;;;1.8;1.4;;;;;;;32.33;36.29199;938.9573;;;;
2021/07/10 09:28:43;;;;;;;1.3;1.2;;;;;;;32.86;33.99121;938.9056;;;;
2021/07/10 09:31:09;;;;;;;2.3;1.4;;;;;;;30.75;38.80566;938.8803;;;;
2021/07/10 09:33:34;;;;;;;1.5;1.4;;;;;;;32.22;34.91504;938.8354;;;;
2021/07/10 09:36:01;;;;;;;1.6;1.5;;;;;;;31.49;36.9541;938.83;;;;
2021/07/10 09:38:26;;;;;;;1.6;1.5;;;;;;;32.05;35.87305;938.7283;;;;
2021/07/10 09:40:53;;;;;;;1.7;1.5;;;;;;;29.31;42.875;938.7568;;;;
2021/07/10 09:43:19;;;;;;;1.6;1.5;;;;;;;28.07;45.7041;938.7313;;;;
2021/07/10 09:45:46;;;;;;;2.1;1.5;;;;;;;28.41;46.39355;938.7089;;;;
2021/07/10 09:48:19;;;;;;;2;1.5;;;;;;;27.74;47.19043;938.6925;;;;
2021/07/10 09:50:49;;;;;;;1.5;1.4;;;;;;;26.58;49.11719;938.6384;;;;
2021/07/10 09:53:09;;;;;;;3.9;1.9;;;;;;;26.86;49.06445;938.6017;;;;
2021/07/10 09:55:39;;;;;;;1.6;1.5;;;;;;;27.44;49.09375;938.6145;;;;
2021/07/10 09:58:04;;;;;;;1.6;1.5;;;;;;;25.85;54.12012;938.4964;;;;
2021/07/10 10:00:34;;;;;;;1.7;1.5;;;;;;;26.82;50.55371;938.5117;;;;
2021/07/10 10:02:59;;;;;;;2.2;1.7;;;;;;;25.81;53.02832;938.4727;;;;
2021/07/10 10:05:24;;;;;;;2.3;1.7;;;;;;;25.22;54.39941;938.3809;;;;
2021/07/10 10:07:49;;;;;;;3;2.1;;;;;;;25.55;55.21973;938.4097;;;;
2021/07/10 10:10:18;;;;;;;2.5;2;;;;;;;24.58;60.02734;938.4537;;;;
2021/07/10 10:12:43;;;;;;;2.1;1.9;;;;;;;25.58;54.64355;938.433;;;;
2021/07/10 10:15:12;;;;;;;2.4;1.8;;;;;;;25.19;55.63477;938.4175;;;;
2021/07/10 10:17:40;;;;;;;2.1;1.7;;;;;;;24.95;56.3252;938.3538;;;;
2021/07/10 10:20:10;;;;;;;3.3;2.2;;;;;;;24.12;61.94238;938.3925;;;;
2021/07/10 10:22:35;;;;;;;3.6;2.1;;;;;;;24.12;61.69629;938.3851;;;;
2021/07/10 10:25:11;;;;;;;1.9;1.8;;;;;;;24.73;59.30371;938.3582;;;;
2021/07/10 10:27:40;;;;;;;2.5;1.9;;;;;;;24.7;61.33984;938.2745;;;;
2021/07/10 10:30:12;;;;;;;2;1.9;;;;;;;24.9;59.92773;938.2765;;;;
2021/07/10 10:32:59;;;;;;;4.7;1.8;;;;;;;24.87;58.98047;938.2867;;;;
2021/07/10 10:35:33;;;;;;;2.1;1.9;;;;;;;26;57.62793;938.2759;;;;
2021/07/10 10:37:58;;;;;;;2;1.8;;;;;;;25.49;57.01855;938.2235;;;;
2021/07/10 10:40:25;;;;;;;4.1;2.3;;;;;;;25.92;54.76758;938.1975;;;;
2021/07/10 10:42:54;;;;;;;1.8;1.7;;;;;;;26.52;51.7627;938.1705;;;;
2021/07/10 10:45:18;;;;;;;2.3;1.8;;;;;;;26.87;51.02051;938.1367;;;;
2021/07/10 10:47:45;;;;;;;1.8;1.7;;;;;;;26.93;50.69727;938.1415;;;;
2021/07/10 10:50:08;;;;;;;2.3;1.9;;;;;;;25.73;55.00488;938.0623;;;;
2021/07/10 18:00:57;;;;;;;2.7;1.9;;;;;;;19.84;87.84863;937.3427;;;;
2021/07/10 18:03:22;;;;;;;6.9;4.4;;;;;;;19.94;87.60938;937.4547;;;;
2021/07/10 18:05:52;;;;;;;7.2;4.5;;;;;;;19.66;90.91406;937.5701;;;;
2021/07/10 18:08:20;;;;;;;6.2;4.5;;;;;;;19.8;90.87207;937.5569;;;;
2021/07/10 18:10:42;;;;;;;6.8;5.2;;;;;;;19.94;90.47949;937.5405;;;;
2021/07/10 18:13:15;;;;;;;6;5.4;;;;;;;20.07;90.63574;937.4975;;;;
2021/07/10 18:15:54;;;;;;;6.3;5.6;;;;;;;20.16;89.46387;937.5287;;;;
2021/07/10 18:18:19;;;;;;;10.5;7.5;;;;;;;20.08;89.1084;937.4543;;;;
2021/07/10 18:20:53;;;;;;;8.6;6.6;;;;;;;20.03;88.90137;937.4451;;;;
2021/07/10 18:23:24;;;;;;;6.9;5.6;;;;;;;19.88;88.96387;937.3528;;;;
2021/07/10 18:25:53;;;;;;;6.5;5.5;;;;;;;19.41;89.24219;937.4451;;;;
2021/07/10 18:28:23;;;;;;;7.8;5.3;;;;;;;18.83;91.60352;937.4686;;;;
2021/07/10 18:30:46;;;;;;;5.9;4.1;;;;;;;18.39;91.98828;937.4774;;;;
2021/07/10 18:33:12;;;;;;;4.7;3.6;;;;;;;18.5;90.7666;937.4922;;;;
2021/07/10 18:35:38;;;;;;;6;3.5;;;;;;;18.63;89.91113;937.4213;;;;
2021/07/10 18:38:11;;;;;;;5.2;4;;;;;;;18.7;92.07813;937.3842;;;;
2021/07/10 18:40:36;;;;;;;6.4;3.7;;;;;;;18.66;93.31348;937.2915;;;;
2021/07/10 18:43:01;;;;;;;5.3;4;;;;;;;18.81;91.51855;937.1403;;;;
2021/07/10 18:45:31;;;;;;;5.4;3.8;;;;;;;18.96;91.01367;937.1153;;;;
2021/07/10 18:48:02;;;;;;;4.3;3.9;;;;;;;19;90.88086;937.0739;;;;
2021/07/10 18:50:28;;;;;;;4.5;3.8;;;;;;;18.94;90.8584;937.0793;;;;
2021/07/10 18:52:52;;;;;;;5.2;3.6;;;;;;;18.99;88.60938;937.1041;;;;
2021/07/10 18:55:20;;;;;;;5.7;3.5;;;;;;;18.85;89.45508;937.1301;;;;
2021/07/10 18:57:45;;;;;;;4;3.1;;;;;;;18.77;88.48438;937.1865;;;;
2021/07/10 19:00:12;;;;;;;5;2.8;;;;;;;18.65;88.9375;937.2426;;;;
2021/07/10 19:02:42;;;;;;;3;2.7;;;;;;;18.54;89.14648;937.2607;;;;
2021/07/10 19:05:07;;;;;;;4.3;3.3;;;;;;;18.63;90.01563;937.1858;;;;
2021/07/10 19:07:37;;;;;;;4.2;2.9;;;;;;;18.7;89.58691;937.0552;;;;
2021/07/10 19:10:09;;;;;;;4.6;2.8;;;;;;;18.72;88.05469;937.0248;;;;
2021/07/10 19:13:00;;;;;;;3.5;2.2;;;;;;;18.37;88.38086;937.0416;;;;
2021/07/10 19:15:29;;;;;;;2.3;1.8;;;;;;;18.05;89.0498;937.0515;;;;
2021/07/10 19:17:56;;;;;;;3.5;1.7;;;;;;;17.95;87.25098;937.0356;;;;
2021/07/10 19:20:24;;;;;;;2.5;2;;;;;;;17.83;89.44531;937.0889;;;;
2021/07/10 19:22:49;;;;;;;2;1.8;;;;;;;17.67;89.04102;936.945;;;;
2021/07/10 19:25:14;;;;;;;2.3;1.7;;;;;;;17.78;89.17871;936.935;;;;
2021/07/10 19:27:40;;;;;;;4;1.7;;;;;;;17.7;87.89844;936.8738;;;;
2021/07/10 19:30:05;;;;;;;3.1;1.9;;;;;;;17.58;87.0957;936.8619;;;;
2021/07/10 19:32:30;;;;;;;2.9;1.7;;;;;;;17.57;88.8584;936.891;;;;
2021/07/10 19:34:58;;;;;;;2.2;1.6;;;;;;;17.51;89.27637;936.8867;;;;
2021/07/10 19:37:23;;;;;;;2.9;1.6;;;;;;;17.24;89.65039;936.8809;;;;
2021/07/10 19:39:51;;;;;;;2.7;1.6;;;;;;;17.2;89.87305;936.8387;;;;
2021/07/10 19:42:16;;;;;;;2;1.6;;;;;;;17.19;90.26758;936.9008;;;;
2021/07/10 19:44:46;;;;;;;1.5;1.2;;;;;;;17.02;88.56348;936.8862;;;;
2021/07/10 19:47:11;;;;;;;2.3;1.6;;;;;;;16.95;92.14063;936.9105;;;;
2021/07/10 19:49:37;;;;;;;1.9;1.3;;;;;;;17.15;89.37695;937.0037;;;;
2021/07/10 19:52:02;;;;;;;1.4;1.3;;;;;;;17.04;88.19629;936.9478;;;;
2021/07/10 19:54:29;;;;;;;2.2;1.6;;;;;;;17.22;89.69141;937.0139;;;;
2021/07/10 19:56:54;;;;;;;1.4;1.3;;;;;;;17.23;88.97461;937.0212;;;;
2021/07/10 19:59:19;;;;;;;1.6;1.5;;;;;;;17.36;90.34668;937.026;;;;
2021/07/10 20:01:44;;;;;;;2.6;1.7;;;;;;;17.39;89.48242;937.1075;;;;
2021/07/10 20:04:10;;;;;;;2.5;1.9;;;;;;;17.41;90.20703;937.1063;;;;
2021/07/10 20:06:35;;;;;;;3;1.9;;;;;;;17.45;91.02637;937.1292;;;;
2021/07/10 20:09:03;;;;;;;2.1;1.9;;;;;;;17.51;91.3418;937.1298;;;;
2021/07/10 20:11:28;;;;;;;2.1;1.9;;;;;;;17.5;91.73438;937.1292;;;;
2021/07/10 20:13:55;;;;;;;4.9;4.4;;;;;;;17.49;91.41699;937.1429;;;;
2021/07/10 20:16:27;;;;;;;4.1;3.2;;;;;;;17.48;91.97363;937.1423;;;;
2021/07/10 20:18:57;;;;;;;3;2.7;;;;;;;17.53;93.50098;937.0867;;;;
2021/07/10 20:21:22;;;;;;;3.3;2.3;;;;;;;17.47;94.30371;937.1409;;;;
2021/07/10 20:23:49;;;;;;;2.4;2.2;;;;;;;17.55;93.85352;937.1347;;;;
2021/07/10 20:26:14;;;;;;;2.5;2.3;;;;;;;17.39;93.68164;937.1108;;;;
2021/07/10 20:28:43;;;;;;;5.7;4.8;;;;;;;17.34;94.17969;937.0361;;;;
2021/07/10 20:31:08;;;;;;;4.3;3.5;;;;;;;17.29;92.1875;937.0474;;;;
2021/07/10 20:33:37;;;;;;;3.4;3.1;;;;;;;17.37;93.75684;937.0034;;;;
2021/07/10 20:36:03;;;;;;;3.8;2.8;;;;;;;17.47;93.72363;937.0346;;;;
2021/07/10 20:38:27;;;;;;;4.2;3.3;;;;;;;17.53;93.2832;937.0586;;;;
2021/07/10 20:40:54;;;;;;;4.4;2.9;;;;;;;17.56;93.28809;937.0959;;;;
2021/07/10 20:43:19;;;;;;;2.8;2.6;;;;;;;17.6;92.83203;937.1594;;;;
2021/07/10 20:45:46;;;;;;;3.3;2.8;;;;;;;17.57;93.42969;937.1383;;;;
2021/07/10 20:48:11;;;;;;;3;2.8;;;;;;;17.49;92.75098;937.1149;;;;
2021/07/10 20:50:40;;;;;;;3;2.7;;;;;;;17.52;93.04688;937.1739;;;;
2021/07/10 20:53:07;;;;;;;3;2.7;;;;;;;17.54;94.08496;937.2371;;;;
2021/07/10 20:55:33;;;;;;;3.3;2.3;;;;;;;17.61;93.45117;937.2422;;;;
2021/07/10 20:58:01;;;;;;;2.7;2.5;;;;;;;17.57;93.35059;937.2332;;;;
2021/07/10 21:00:27;;;;;;;3.6;1.9;;;;;;;17.53;92.74902;937.3105;;;;
2021/07/10 21:02:52;;;;;;;2.9;2.4;;;;;;;17.32;94.1084;937.3624;;;;
2021/07/10 21:05:18;;;;;;;2.7;2.5;;;;;;;17.05;96.63281;937.3854;;;;
2021/07/10 21:07:43;;;;;;;3;2.6;;;;;;;16.61;99.5127;937.3879;;;;
2021/07/10 21:10:13;;;;;;;3.6;3.1;;;;;;;16.81;99.38477;937.3717;;;;
2021/07/10 21:12:38;;;;;;;4.2;3.1;;;;;;;16.78;99.19336;937.3635;;;;
2021/07/10 21:15:06;;;;;;;3.1;2.8;;;;;;;16.91;98.31836;937.3117;;;;
2021/07/10 21:17:36;;;;;;;3.4;3;;;;;;;16.93;98.04395;937.2866;;;;
2021/07/10 21:20:07;;;;;;;5.5;4;;;;;;;17.07;97.44824;937.2515;;;;
2021/07/10 21:22:32;;;;;;;4.1;3.7;;;;;;;17.09;97.34961;937.2503;;;;
2021/07/10 21:25:01;;;;;;;3.5;3.2;;;;;;;17.19;97.30469;937.2581;;;;
2021/07/10 21:27:26;;;;;;;4.6;3.3;;;;;;;17.08;97.60254;937.1587;;;;
2021/07/10 21:29:54;;;;;;;3.6;3.1;;;;;;;17.07;98.22656;937.1484;;;;
2021/07/10 21:32:19;;;;;;;5.6;3.5;;;;;;;17.25;97.96387;937.2205;;;;
2021/07/10 21:34:46;;;;;;;3.9;3;;;;;;;17.3;97.28027;937.2364;;;;
2021/07/10 21:37:15;;;;;;;3.2;2.6;;;;;;;17.23;95.6543;937.2553;;;;
2021/07/10 21:39:36;;;;;;;2.7;2.5;;;;;;;17.32;95.59277;937.1345;;;;
2021/07/10 21:42:02;;;;;;;2.9;2.2;;;;;;;17.43;94.0625;937.2271;;;;
2021/07/10 21:44:28;;;;;;;3;2.5;;;;;;;17.52;93.79102;937.2881;;;;
2021/07/10 21:46:54;;;;;;;3.6;2.7;;;;;;;17.51;94.50879;937.3374;;;;
2021/07/10 21:49:19;;;;;;;3.1;2.7;;;;;;;17.5;95.38867;937.4744;;;;
2021/07/10 21:51:47;;;;;;;3.5;2.7;;;;;;;17.51;95.62305;937.5517;;;;
2021/07/10 21:54:13;;;;;;;3;2.7;;;;;;;17.5;95.53906;937.5591;;;;
2021/07/10 21:56:38;;;;;;;2.8;2.5;;;;;;;17.35;94.76367;937.6838;;;;
2021/07/10 21:59:03;;;;;;;3.2;2.9;;;;;;;17.34;95.95605;937.7355;;;;
2021/07/10 22:01:30;;;;;;;3.4;2.8;;;;;;;17.32;96.18457;937.7148;;;;
2021/07/10 22:03:55;;;;;;;4;3;;;;;;;17.27;96.36914;937.7021;;;;
2021/07/10 22:06:23;;;;;;;3.2;2.9;;;;;;;17.32;96.19629;937.677;;;;
2021/07/10 22:08:48;;;;;;;3.4;3;;;;;;;17.28;95.67578;937.5676;;;;
2021/07/10 22:11:13;;;;;;;3.8;3.1;;;;;;;17.27;96.1377;937.6361;;;;
2021/07/10 22:13:38;;;;;;;3.1;2.8;;;;;;;17.32;95.5791;937.6941;;;;
2021/07/10 22:16:05;;;;;;;3.3;2.8;;;;;;;17.34;96.03711;937.733;;;;
2021/07/10 22:18:30;;;;;;;3.2;2.9;;;;;;;17.44;95.9873;937.6625;;;;
2021/07/10 22:20:56;;;;;;;3.2;2.9;;;;;;;17.38;95.44238;937.528;;;;
2021/07/10 22:23:21;;;;;;;3.1;2.6;;;;;;;17.41;94.49902;937.5297;;;;
2021/07/10 22:25:48;;;;;;;3;2.8;;;;;;;17.37;96.28516;937.5363;;;;
2021/07/10 22:28:15;;;;;;;3.5;2.7;;;;;;;17.25;97.43262;937.5882;;;;
2021/07/10 22:30:40;;;;;;;3.1;2.8;;;;;;;17.19;97.31641;937.6428;;;;
2021/07/10 22:33:05;;;;;;;2.7;2.5;;;;;;;17.16;96.83105;937.645;;;;
2021/07/10 22:35:32;;;;;;;3.2;2.3;;;;;;;17.06;97.00781;937.7158;;;;
2021/07/10 22:37:57;;;;;;;2.5;2.3;;;;;;;17.03;96.53613;937.808;;;;
2021/07/10 22:40:22;;;;;;;2.5;2.3;;;;;;;17.11;96.64648;937.8784;;;;
2021/07/10 22:42:47;;;;;;;3.3;2.1;;;;;;;17.08;95.67871;937.894;;;;
2021/07/10 22:45:14;;;;;;;2.5;2.1;;;;;;;17.12;95.50293;937.883;;;;
2021/07/10 22:47:39;;;;;;;2.6;2.3;;;;;;;17.02;96.4209;937.952;;;;
2021/07/10 22:50:08;;;;;;;3.4;2.4;;;;;;;17.09;95.81836;938.0911;;;;
2021/07/10 22:52:36;;;;;;;3.4;2.6;;;;;;;17.19;95.79492;938.2214;;;;
2021/07/10 22:55:01;;;;;;;3;2.5;;;;;;;17.28;96.20898;938.226;;;;
2021/07/10 22:57:29;;;;;;;3.6;2.7;;;;;;;17.32;95.66016;938.2695;;;;
2021/07/10 22:59:53;;;;;;;3.1;2.6;;;;;;;17.18;95.88574;938.2126;;;;
2021/07/10 23:02:18;;;;;;;2.6;2.4;;;;;;;17.13;96.40918;938.3922;;;;
2021/07/10 23:04:46;;;;;;;3.1;2.7;;;;;;;17.17;96.55664;938.5661;;;;
2021/07/10 23:07:11;;;;;;;4.7;3.2;;;;;;;17.12;97.77344;938.6506;;;;
2021/07/10 23:09:37;;;;;;;3.4;2.9;;;;;;;17.18;97.77539;938.6408;;;;
2021/07/10 23:12:02;;;;;;;3.4;3;;;;;;;17.2;97.35254;938.6847;;;;
2021/07/10 23:14:33;;;;;;;3.7;2.9;;;;;;;17.19;97.68457;938.6769;;;;
2021/07/10 23:16:53;;;;;;;3.1;2.7;;;;;;;17.19;97.86133;938.6325;;;;
2021/07/10 23:19:22;;;;;;;3;2.3;;;;;;;17.21;98.29199;938.6082;;;;
2021/07/10 23:21:47;;;;;;;2.9;2.5;;;;;;;17.26;97.96777;938.5256;;;;
2021/07/10 23:24:14;;;;;;;4;2.7;;;;;;;17.27;98.25;938.4972;;;;
2021/07/10 23:26:39;;;;;;;2.9;2.6;;;;;;;17.21;96.1123;938.4359;;;;
2021/07/10 23:29:05;;;;;;;4.2;2.7;;;;;;;17.16;97.05273;938.5847;;;;
2021/07/10 23:31:30;;;;;;;3.1;2.8;;;;;;;17.11;98.60547;938.5808;;;;
2021/07/10 23:33:55;;;;;;;4.1;2.5;;;;;;;17.24;98.27637;938.6514;;;;
2021/07/10 23:36:20;;;;;;;3.4;2.9;;;;;;;17.28;97.50781;938.6209;;;;
2021/07/10 23:38:46;;;;;;;4.1;3;;;;;;;17.25;98.05664;938.5339;;;;
2021/07/10 23:41:11;;;;;;;4.6;3;;;;;;;17.34;97.26465;938.4922;;;;
2021/07/10 23:43:36;;;;;;;4.1;2.8;;;;;;;17.36;96.59863;938.4386;;;;
2021/07/10 23:46:03;;;;;;;4.2;2.5;;;;;;;17.37;96.19434;938.5883;;;;
2021/07/10 23:48:28;;;;;;;3.1;2.6;;;;;;;17.28;97.58887;938.6847;;;;
2021/07/10 23:50:55;;;;;;;3.6;2.2;;;;;;;17.35;97.47754;938.7567;;;;
2021/07/10 23:53:20;;;;;;;4;2.9;;;;;;;17.38;96.82422;938.6516;;;;
2021/07/10 23:55:46;;;;;;;2.6;2.4;;;;;;;17.37;95.97168;938.6213;;;;
2021/07/10 23:58:11;;;;;;;3.1;2.6;;;;;;;17.29;96.69824;938.5782;;;;
